sensor_id;sensor_type;location;lat;lon;timestamp;pressure;altitude;pressure_sealevel;temperature;humidity
4012;BME280;2020;48.682;9.024;2023-12-20T00:02:21;96435.69;;;3.82;100.00
4012;BME280;2020;48.682;9.024;2023-12-20T00:04:47;96443.28;;;3.83;100.00
4012;BME280;2020;48.682;9.024;2023-12-20T00:07:12;96432.19;;;3.83;100.00
4012;BME280;2020;48.682;9.024;2023-12-20T00:09:37;96430.53;;;3.82;100.00
4012;BME280;2020;48.682;9.024;2023-12-20T00:12:02;96427.13;;;3.81;100.00
4012;BME280;2020;48.682;9.024;2023-12-20T00:14:28;96426.81;;;3.86;100.00
4012;BME280;2020;48.682;9.024;2023-12-20T00:16:53;96425.16;;;3.85;100.00
4012;BME280;2020;48.682;9.024;2023-12-20T00:19:18;96426.81;;;3.86;100.00
4012;BME280;2020;48.682;9.024;2023-12-20T00:21:44;96418.38;;;3.84;100.00
4012;BME280;2020;48.682;9.024;2023-12-20T00:24:09;96421.19;;;3.80;100.00
4012;BME280;2020;48.682;9.024;2023-12-20T00:26:34;96413.47;;;3.80;100.00
4012;BME280;2020;48.682;9.024;2023-12-20T00:28:59;96398.00;;;3.80;100.00
4012;BME280;2020;48.682;9.024;2023-12-20T00:31:25;96412.84;;;3.77;100.00
4012;BME280;2020;48.682;9.024;2023-12-20T00:33:50;96401.75;;;3.76;100.00
4012;BME280;2020;48.682;9.024;2023-12-20T00:36:15;96404.41;;;3.75;100.00
4012;BME280;2020;48.682;9.024;2023-12-20T00:38:41;96408.16;;;3.71;100.00
4012;BME280;2020;48.682;9.024;2023-12-20T00:41:06;96410.88;;;3.69;100.00
4012;BME280;2020;48.682;9.024;2023-12-20T00:43:31;96404.06;;;3.68;100.00
4012;BME280;2020;48.682;9.024;2023-12-20T00:45:57;96394.00;;;3.65;100.00
4012;BME280;2020;48.682;9.024;2023-12-20T00:48:22;96386.38;;;3.63;100.00
4012;BME280;2020;48.682;9.024;2023-12-20T00:50:47;96384.75;;;3.62;100.00
4012;BME280;2020;48.682;9.024;2023-12-20T00:53:12;96387.22;;;3.64;100.00
4012;BME280;2020;48.682;9.024;2023-12-20T00:55:38;96392.38;;;3.64;100.00
4012;BME280;2020;48.682;9.024;2023-12-20T00:58:03;96390.94;;;3.60;100.00
4012;BME280;2020;48.682;9.024;2023-12-20T01:00:28;96390.72;;;3.63;100.00
4012;BME280;2020;48.682;9.024;2023-12-20T01:02:54;96392.38;;;3.64;100.00
4012;BME280;2020;48.682;9.024;2023-12-20T01:05:19;96390.50;;;3.66;100.00
4012;BME280;2020;48.682;9.024;2023-12-20T01:07:48;96402.66;;;3.64;100.00
4012;BME280;2020;48.682;9.024;2023-12-20T01:10:13;96401.03;;;3.63;100.00
4012;BME280;2020;48.682;9.024;2023-12-20T01:12:38;96400.41;;;3.59;100.00
4012;BME280;2020;48.682;9.024;2023-12-20T01:15:04;96401.25;;;3.60;100.00
4012;BME280;2020;48.682;9.024;2023-12-20T01:17:29;96399.38;;;3.62;100.00
4012;BME280;2020;48.682;9.024;2023-12-20T01:19:55;96399.38;;;3.62;100.00
4012;BME280;2020;48.682;9.024;2023-12-20T01:22:20;96398.44;;;3.63;100.00
4012;BME280;2020;48.682;9.024;2023-12-20T01:24:45;96399.59;;;3.59;100.00
4012;BME280;2020;48.682;9.024;2023-12-20T01:27:10;96401.25;;;3.60;100.00
4012;BME280;2020;48.682;9.024;2023-12-20T01:29:36;96403.91;;;3.58;100.00
4012;BME280;2020;48.682;9.024;2023-12-20T01:32:01;96404.75;;;3.59;100.00
4012;BME280;2020;48.682;9.024;2023-12-20T01:34:26;96399.38;;;3.62;100.00
4012;BME280;2020;48.682;9.024;2023-12-20T01:36:51;96394.47;;;3.59;100.00
4012;BME280;2020;48.682;9.024;2023-12-20T01:39:17;96396.09;;;3.60;100.00
4012;BME280;2020;48.682;9.024;2023-12-20T01:41:43;96393.53;;;3.60;100.00
4012;BME280;2020;48.682;9.024;2023-12-20T01:44:08;96401.59;;;3.66;100.00
4012;BME280;2020;48.682;9.024;2023-12-20T01:46:33;96394.72;;;3.67;100.00
4012;BME280;2020;48.682;9.024;2023-12-20T01:48:59;96405.47;;;3.72;100.00
4012;BME280;2020;48.682;9.024;2023-12-20T01:51:25;96413.91;;;3.74;100.00
4012;BME280;2020;48.682;9.024;2023-12-20T01:53:52;96403.63;;;3.74;100.00
4012;BME280;2020;48.682;9.024;2023-12-20T01:56:18;96400.09;;;3.75;100.00
4012;BME280;2020;48.682;9.024;2023-12-20T01:58:45;96396.00;;;3.73;100.00
4012;BME280;2020;48.682;9.024;2023-12-20T02:01:11;96402.91;;;3.72;100.00
4012;BME280;2020;48.682;9.024;2023-12-20T02:03:37;96395.75;;;3.76;100.00
4012;BME280;2020;48.682;9.024;2023-12-20T02:06:04;96396.81;;;3.73;100.00
4012;BME280;2020;48.682;9.024;2023-12-20T02:08:30;96394.97;;;3.75;100.00
4012;BME280;2020;48.682;9.024;2023-12-20T02:10:56;96400.09;;;3.75;100.00
4012;BME280;2020;48.682;9.024;2023-12-20T02:13:21;96399.28;;;3.75;100.00
4012;BME280;2020;48.682;9.024;2023-12-20T02:15:46;96401.97;;;3.73;100.00
4012;BME280;2020;48.682;9.024;2023-12-20T02:18:12;96403.63;;;3.74;100.00
4012;BME280;2020;48.682;9.024;2023-12-20T02:20:40;96397.06;;;3.70;100.00
4012;BME280;2020;48.682;9.024;2023-12-20T02:23:05;96397.84;;;3.71;100.00
4012;BME280;2020;48.682;9.024;2023-12-20T02:25:31;96398.69;;;3.71;100.00
4012;BME280;2020;48.682;9.024;2023-12-20T02:27:56;96398.69;;;3.71;100.00
4012;BME280;2020;48.682;9.024;2023-12-20T02:30:21;96401.97;;;3.73;100.00
4012;BME280;2020;48.682;9.024;2023-12-20T02:32:47;96398.47;;;3.74;100.00
4012;BME280;2020;48.682;9.024;2023-12-20T02:35:13;96397.06;;;3.70;100.00
4012;BME280;2020;48.682;9.024;2023-12-20T02:37:38;96398.00;;;3.69;100.00
4012;BME280;2020;48.682;9.024;2023-12-20T02:40:04;96400.56;;;3.69;100.00
4012;BME280;2020;48.682;9.024;2023-12-20T02:42:29;96390.03;;;3.72;100.00
4012;BME280;2020;48.682;9.024;2023-12-20T02:44:55;96398.69;;;3.71;100.00
4012;BME280;2020;48.682;9.024;2023-12-20T02:47:20;96400.56;;;3.69;100.00
4012;BME280;2020;48.682;9.024;2023-12-20T02:49:45;96388.63;;;3.68;100.00
4012;BME280;2020;48.682;9.024;2023-12-20T02:52:10;96390.28;;;3.69;100.00
4012;BME280;2020;48.682;9.024;2023-12-20T02:54:36;96390.13;;;3.71;100.00
4012;BME280;2020;48.682;9.024;2023-12-20T02:57:01;96400.34;;;3.72;100.00
4012;BME280;2020;48.682;9.024;2023-12-20T02:59:26;96407.13;;;3.73;100.00
4012;BME280;2020;48.682;9.024;2023-12-20T03:01:52;96405.47;;;3.72;100.00
4012;BME280;2020;48.682;9.024;2023-12-20T03:04:17;96405.47;;;3.72;100.00
4012;BME280;2020;48.682;9.024;2023-12-20T03:06:42;96405.59;;;3.71;100.00
4012;BME280;2020;48.682;9.024;2023-12-20T03:09:07;96410.63;;;3.72;100.00
4012;BME280;2020;48.682;9.024;2023-12-20T03:11:33;96408.75;;;3.74;100.00
4012;BME280;2020;48.682;9.024;2023-12-20T03:13:58;96413.91;;;3.74;100.00
4012;BME280;2020;48.682;9.024;2023-12-20T03:16:23;96415.56;;;3.75;100.00
4012;BME280;2020;48.682;9.024;2023-12-20T03:18:49;96416.50;;;3.74;100.00
4012;BME280;2020;48.682;9.024;2023-12-20T03:21:14;96415.56;;;3.75;100.00
4012;BME280;2020;48.682;9.024;2023-12-20T03:23:40;96418.84;;;3.77;100.00
4012;BME280;2020;48.682;9.024;2023-12-20T03:26:09;96415.78;;;3.72;100.00
4012;BME280;2020;48.682;9.024;2023-12-20T03:28:34;96431.69;;;3.66;100.00
4012;BME280;2020;48.682;9.024;2023-12-20T03:31:00;96425.69;;;3.65;100.00
4012;BME280;2020;48.682;9.024;2023-12-20T03:33:27;96423.25;;;3.64;100.00
4012;BME280;2020;48.682;9.024;2023-12-20T03:35:52;96424.91;;;3.65;100.00
4012;BME280;2020;48.682;9.024;2023-12-20T03:38:17;96423.47;;;3.61;100.00
4012;BME280;2020;48.682;9.024;2023-12-20T03:40:43;96425.13;;;3.62;100.00
4012;BME280;2020;48.682;9.024;2023-12-20T03:43:08;96430.97;;;3.64;100.00
4012;BME280;2020;48.682;9.024;2023-12-20T03:45:33;96434.59;;;3.61;100.00
4012;BME280;2020;48.682;9.024;2023-12-20T03:47:59;96438.69;;;3.64;100.00
4012;BME280;2020;48.682;9.024;2023-12-20T03:50:25;96437.06;;;3.63;100.00
4012;BME280;2020;48.682;9.024;2023-12-20T03:52:50;96435.63;;;3.59;100.00
4012;BME280;2020;48.682;9.024;2023-12-20T03:55:15;96435.50;;;3.60;100.00
4012;BME280;2020;48.682;9.024;2023-12-20T03:57:41;96437.28;;;3.60;100.00
4012;BME280;2020;48.682;9.024;2023-12-20T04:00:09;96433.06;;;3.59;100.00
4012;BME280;2020;48.682;9.024;2023-12-20T04:02:39;96427.91;;;3.59;100.00
4012;BME280;2020;48.682;9.024;2023-12-20T04:05:05;96432.34;;;3.57;100.00
4012;BME280;2020;48.682;9.024;2023-12-20T04:07:30;96442.66;;;3.57;100.00
4012;BME280;2020;48.682;9.024;2023-12-20T04:09:56;96436.09;;;3.53;100.00
4012;BME280;2020;48.682;9.024;2023-12-20T04:12:21;96444.75;;;3.51;100.00
4012;BME280;2020;48.682;9.024;2023-12-20T04:14:46;96444.97;;;3.48;100.00
4012;BME280;2020;48.682;9.024;2023-12-20T04:17:11;96441.47;;;3.49;100.00
4012;BME280;2020;48.682;9.024;2023-12-20T04:19:37;96431.94;;;3.39;100.00
4012;BME280;2020;48.682;9.024;2023-12-20T04:22:02;96438.63;;;3.41;100.00
4012;BME280;2020;48.682;9.024;2023-12-20T04:24:27;96444.69;;;3.40;100.00
4012;BME280;2020;48.682;9.024;2023-12-20T04:26:52;96449.38;;;3.35;100.00
4012;BME280;2020;48.682;9.024;2023-12-20T04:29:18;96457.78;;;3.37;100.00
4012;BME280;2020;48.682;9.024;2023-12-20T04:31:43;96454.28;;;3.38;100.00
4012;BME280;2020;48.682;9.024;2023-12-20T04:34:08;96454.50;;;3.35;100.00
4012;BME280;2020;48.682;9.024;2023-12-20T04:36:34;96452.66;;;3.37;100.00
4012;BME280;2020;48.682;9.024;2023-12-20T04:38:59;96451.22;;;3.33;100.00
4012;BME280;2020;48.682;9.024;2023-12-20T04:41:24;96458.66;;;3.25;100.00
4012;BME280;2020;48.682;9.024;2023-12-20T04:43:50;96463.34;;;3.31;100.00
4012;BME280;2020;48.682;9.024;2023-12-20T04:46:15;96473.44;;;3.34;100.00
4012;BME280;2020;48.682;9.024;2023-12-20T04:48:40;96477.38;;;3.27;100.00
4012;BME280;2020;48.682;9.024;2023-12-20T04:51:05;96478.19;;;3.27;100.00
4012;BME280;2020;48.682;9.024;2023-12-20T04:53:31;96472.84;;;3.30;100.00
4012;BME280;2020;48.682;9.024;2023-12-20T04:55:56;96470.34;;;3.29;100.00
4012;BME280;2020;48.682;9.024;2023-12-20T04:58:21;96484.16;;;3.28;100.00
4012;BME280;2020;48.682;9.024;2023-12-20T05:00:46;96476.94;;;3.33;100.00
4012;BME280;2020;48.682;9.024;2023-12-20T05:03:12;96483.75;;;3.34;100.00
4012;BME280;2020;48.682;9.024;2023-12-20T05:05:37;96483.75;;;3.34;100.00
4012;BME280;2020;48.682;9.024;2023-12-20T05:08:02;96478.78;;;3.31;100.00
4012;BME280;2020;48.682;9.024;2023-12-20T05:10:29;96487.44;;;3.30;100.00
4012;BME280;2020;48.682;9.024;2023-12-20T05:12:54;96485.22;;;3.25;100.00
4012;BME280;2020;48.682;9.024;2023-12-20T05:15:19;96494.22;;;3.31;100.00
4012;BME280;2020;48.682;9.024;2023-12-20T05:17:44;96504.50;;;3.31;100.00
4012;BME280;2020;48.682;9.024;2023-12-20T05:20:10;96511.81;;;3.37;100.00
4012;BME280;2020;48.682;9.024;2023-12-20T05:22:35;96515.03;;;3.28;100.00
4012;BME280;2020;48.682;9.024;2023-12-20T05:25:00;96517.38;;;3.31;100.00
4012;BME280;2020;48.682;9.024;2023-12-20T05:27:26;96514.19;;;3.40;100.00
4012;BME280;2020;48.682;9.024;2023-12-20T05:29:51;96516.75;;;3.40;100.00
4012;BME280;2020;48.682;9.024;2023-12-20T05:32:16;96518.19;;;3.44;100.00
4012;BME280;2020;48.682;9.024;2023-12-20T05:34:42;96517.69;;;3.39;100.00
4012;BME280;2020;48.682;9.024;2023-12-20T05:37:07;96530.56;;;3.39;100.00
4012;BME280;2020;48.682;9.024;2023-12-20T05:39:32;96527.97;;;3.39;100.00
4012;BME280;2020;48.682;9.024;2023-12-20T05:41:57;96526.56;;;3.35;100.00
4012;BME280;2020;48.682;9.024;2023-12-20T05:44:23;96524.69;;;3.37;100.00
4012;BME280;2020;48.682;9.024;2023-12-20T05:46:48;96536.63;;;3.38;100.00
4012;BME280;2020;48.682;9.024;2023-12-20T05:49:13;96535.78;;;3.38;100.00
4012;BME280;2020;48.682;9.024;2023-12-20T05:51:39;96540.34;;;3.34;100.00
4012;BME280;2020;48.682;9.024;2023-12-20T05:54:04;96540.13;;;3.37;100.00
4012;BME280;2020;48.682;9.024;2023-12-20T05:56:29;96545.81;;;3.29;100.00
4012;BME280;2020;48.682;9.024;2023-12-20T05:58:55;96543.53;;;3.25;100.00
4012;BME280;2020;48.682;9.024;2023-12-20T06:01:20;96546.22;;;3.23;100.00
4012;BME280;2020;48.682;9.024;2023-12-20T06:03:45;96552.53;;;3.19;100.00
4012;BME280;2020;48.682;9.024;2023-12-20T06:06:13;96560.53;;;3.14;100.00
4012;BME280;2020;48.682;9.024;2023-12-20T06:08:39;96570.41;;;3.20;100.00
4012;BME280;2020;48.682;9.024;2023-12-20T06:11:04;96568.34;;;3.26;100.00
4012;BME280;2020;48.682;9.024;2023-12-20T06:13:30;96566.69;;;3.25;100.00
4012;BME280;2020;48.682;9.024;2023-12-20T06:15:56;96561.75;;;3.21;100.00
4012;BME280;2020;48.682;9.024;2023-12-20T06:18:21;96564.84;;;3.27;100.00
4012;BME280;2020;48.682;9.024;2023-12-20T06:20:47;96564.84;;;3.27;100.00
4012;BME280;2020;48.682;9.024;2023-12-20T06:23:12;96569.88;;;3.28;100.00
4012;BME280;2020;48.682;9.024;2023-12-20T06:25:37;96569.97;;;3.27;100.00
4012;BME280;2020;48.682;9.024;2023-12-20T06:28:03;96564.63;;;3.30;100.00
4012;BME280;2020;48.682;9.024;2023-12-20T06:30:28;96569.75;;;3.30;100.00
4012;BME280;2020;48.682;9.024;2023-12-20T06:32:54;96576.56;;;3.31;100.00
4012;BME280;2020;48.682;9.024;2023-12-20T06:35:20;96576.56;;;3.31;100.00
4012;BME280;2020;48.682;9.024;2023-12-20T06:37:45;96576.38;;;3.34;100.00
4012;BME280;2020;48.682;9.024;2023-12-20T06:40:11;96566.25;;;3.31;100.00
4012;BME280;2020;48.682;9.024;2023-12-20T06:42:36;96557.66;;;3.32;100.00
4012;BME280;2020;48.682;9.024;2023-12-20T06:45:02;96565.84;;;3.37;100.00
4012;BME280;2020;48.682;9.024;2023-12-20T06:47:28;96568.66;;;3.34;100.00
4012;BME280;2020;48.682;9.024;2023-12-20T06:49:53;96568.66;;;3.34;100.00
4012;BME280;2020;48.682;9.024;2023-12-20T06:52:18;96581.50;;;3.34;100.00
4012;BME280;2020;48.682;9.024;2023-12-20T06:54:44;96585.00;;;3.33;100.00
4012;BME280;2020;48.682;9.024;2023-12-20T06:57:09;96593.53;;;3.33;100.00
4012;BME280;2020;48.682;9.024;2023-12-20T06:59:40;96593.44;;;3.35;100.00
4012;BME280;2020;48.682;9.024;2023-12-20T07:02:06;96596.72;;;3.37;100.00
4012;BME280;2020;48.682;9.024;2023-12-20T07:04:31;96593.22;;;3.38;100.00
4012;BME280;2020;48.682;9.024;2023-12-20T07:06:56;96598.38;;;3.38;100.00
4012;BME280;2020;48.682;9.024;2023-12-20T07:09:25;96594.16;;;3.37;100.00
4012;BME280;2020;48.682;9.024;2023-12-20T07:11:50;96602.09;;;3.34;100.00
4012;BME280;2020;48.682;9.024;2023-12-20T07:14:15;96604.75;;;3.32;100.00
4012;BME280;2020;48.682;9.024;2023-12-20T07:16:41;96605.59;;;3.33;100.00
4012;BME280;2020;48.682;9.024;2023-12-20T07:19:06;96615.88;;;3.33;100.00
4012;BME280;2020;48.682;9.024;2023-12-20T07:21:31;96626.06;;;3.34;100.00
4012;BME280;2020;48.682;9.024;2023-12-20T07:23:57;96623.06;;;3.28;100.00
4012;BME280;2020;48.682;9.024;2023-12-20T07:26:22;96631.50;;;3.30;100.00
4012;BME280;2020;48.682;9.024;2023-12-20T07:28:48;96639.97;;;3.32;100.00
4012;BME280;2020;48.682;9.024;2023-12-20T07:31:15;96645.31;;;3.29;100.00
4012;BME280;2020;48.682;9.024;2023-12-20T07:33:40;96648.81;;;3.28;100.00
4012;BME280;2020;48.682;9.024;2023-12-20T07:36:06;96652.09;;;3.30;100.00
4012;BME280;2020;48.682;9.024;2023-12-20T07:38:32;96658.69;;;3.34;100.00
4012;BME280;2020;48.682;9.024;2023-12-20T07:40:57;96652.09;;;3.30;100.00
4012;BME280;2020;48.682;9.024;2023-12-20T07:43:22;96652.09;;;3.30;100.00
4012;BME280;2020;48.682;9.024;2023-12-20T07:45:47;96647.88;;;3.29;100.00
4012;BME280;2020;48.682;9.024;2023-12-20T07:48:13;96648.59;;;3.31;100.00
4012;BME280;2020;48.682;9.024;2023-12-20T07:50:39;96657.97;;;3.32;100.00
4012;BME280;2020;48.682;9.024;2023-12-20T07:53:04;96656.00;;;3.35;100.00
4012;BME280;2020;48.682;9.024;2023-12-20T07:55:29;96657.06;;;3.33;100.00
4012;BME280;2020;48.682;9.024;2023-12-20T07:57:56;96657.25;;;3.30;100.00
4012;BME280;2020;48.682;9.024;2023-12-20T08:00:21;96659.00;;;3.29;100.00
4012;BME280;2020;48.682;9.024;2023-12-20T08:02:46;96660.03;;;3.27;100.00
4012;BME280;2020;48.682;9.024;2023-12-20T08:05:12;96663.53;;;3.26;100.00
4012;BME280;2020;48.682;9.024;2023-12-20T08:07:38;96655.28;;;3.20;100.00
4012;BME280;2020;48.682;9.024;2023-12-20T08:10:04;96655.00;;;3.25;100.00
4012;BME280;2020;48.682;9.024;2023-12-20T08:12:29;96654.38;;;3.21;100.00
4012;BME280;2020;48.682;9.024;2023-12-20T08:14:54;96657.66;;;3.24;100.00
4012;BME280;2020;48.682;9.024;2023-12-20T08:17:20;96666.31;;;3.22;100.00
4012;BME280;2020;48.682;9.024;2023-12-20T08:19:45;96669.59;;;3.25;100.00
4012;BME280;2020;48.682;9.024;2023-12-20T08:22:11;96670.22;;;3.28;100.00
4012;BME280;2020;48.682;9.024;2023-12-20T08:24:36;96665.88;;;3.29;100.00
4012;BME280;2020;48.682;9.024;2023-12-20T08:27:01;96673.81;;;3.26;100.00
4012;BME280;2020;48.682;9.024;2023-12-20T08:29:27;96679.47;;;3.31;100.00
4012;BME280;2020;48.682;9.024;2023-12-20T08:31:53;96675.38;;;3.28;100.00
4012;BME280;2020;48.682;9.024;2023-12-20T08:34:21;96680.94;;;3.35;100.00
4012;BME280;2020;48.682;9.024;2023-12-20T08:36:47;96679.28;;;3.34;100.00
4012;BME280;2020;48.682;9.024;2023-12-20T08:39:12;96678.22;;;3.36;100.00
4012;BME280;2020;48.682;9.024;2023-12-20T08:41:37;96676.72;;;3.34;100.00
4012;BME280;2020;48.682;9.024;2023-12-20T08:44:03;96689.56;;;3.34;100.00
4012;BME280;2020;48.682;9.024;2023-12-20T08:46:28;96694.00;;;3.32;100.00
4012;BME280;2020;48.682;9.024;2023-12-20T08:48:54;96714.25;;;3.24;100.00
4012;BME280;2020;48.682;9.024;2023-12-20T08:51:19;96709.53;;;3.17;100.00
4012;BME280;2020;48.682;9.024;2023-12-20T08:53:44;96720.22;;;3.11;100.00
4012;BME280;2020;48.682;9.024;2023-12-20T08:56:10;96715.28;;;3.08;100.00
4012;BME280;2020;48.682;9.024;2023-12-20T08:58:35;96712.91;;;3.05;100.00
4012;BME280;2020;48.682;9.024;2023-12-20T09:01:01;96718.06;;;2.92;100.00
4012;BME280;2020;48.682;9.024;2023-12-20T09:03:26;96713.00;;;2.90;100.00
4012;BME280;2020;48.682;9.024;2023-12-20T09:05:52;96706.03;;;2.92;100.00
4012;BME280;2020;48.682;9.024;2023-12-20T09:08:17;96707.88;;;2.90;100.00
4012;BME280;2020;48.682;9.024;2023-12-20T09:10:42;96697.78;;;2.87;100.00
4012;BME280;2020;48.682;9.024;2023-12-20T09:13:07;96702.31;;;2.97;100.00
4012;BME280;2020;48.682;9.024;2023-12-20T09:15:33;96700.88;;;3.18;100.00
4012;BME280;2020;48.682;9.024;2023-12-20T09:17:59;96713.03;;;3.42;100.00
4012;BME280;2020;48.682;9.024;2023-12-20T09:20:24;96709.94;;;3.37;100.00
4012;BME280;2020;48.682;9.024;2023-12-20T09:22:49;96714.47;;;3.46;100.00
4012;BME280;2020;48.682;9.024;2023-12-20T09:25:15;96712.41;;;3.51;100.00
4012;BME280;2020;48.682;9.024;2023-12-20T09:27:42;96715.41;;;3.45;100.00
4012;BME280;2020;48.682;9.024;2023-12-20T09:30:08;96709.75;;;3.40;100.00
4012;BME280;2020;48.682;9.024;2023-12-20T09:32:33;96712.50;;;4.00;100.00
4012;BME280;2020;48.682;9.024;2023-12-20T09:34:58;96710.66;;;4.62;96.99
4012;BME280;2020;48.682;9.024;2023-12-20T09:37:27;96711.59;;;5.20;96.06
4012;BME280;2020;48.682;9.024;2023-12-20T09:39:53;96708.47;;;5.50;91.48
4012;BME280;2020;48.682;9.024;2023-12-20T09:42:28;96719.94;;;5.92;86.22
4012;BME280;2020;48.682;9.024;2023-12-20T09:44:54;96720.41;;;5.97;84.27
4012;BME280;2020;48.682;9.024;2023-12-20T09:47:23;96727.59;;;5.59;87.47
4012;BME280;2020;48.682;9.024;2023-12-20T09:49:50;96719.03;;;5.36;87.35
4012;BME280;2020;48.682;9.024;2023-12-20T09:52:16;96725.78;;;5.03;85.04
4012;BME280;2020;48.682;9.024;2023-12-20T09:54:43;96740.81;;;5.09;86.90
4012;BME280;2020;48.682;9.024;2023-12-20T09:57:09;96740.16;;;5.41;87.28
4012;BME280;2020;48.682;9.024;2023-12-20T09:59:35;96728.31;;;5.73;84.09
4012;BME280;2020;48.682;9.024;2023-12-20T10:02:01;96731.19;;;6.25;83.23
4012;BME280;2020;48.682;9.024;2023-12-20T10:04:31;96727.69;;;6.47;83.05
4012;BME280;2020;48.682;9.024;2023-12-20T10:06:56;96718.97;;;6.81;80.76
4012;BME280;2020;48.682;9.024;2023-12-20T10:09:22;96710.78;;;6.76;76.68
4012;BME280;2020;48.682;9.024;2023-12-20T10:11:47;96714.13;;;6.66;76.04
4012;BME280;2020;48.682;9.024;2023-12-20T10:14:13;96718.03;;;6.28;74.83
4012;BME280;2020;48.682;9.024;2023-12-20T10:16:40;96727.69;;;5.92;77.62
4012;BME280;2020;48.682;9.024;2023-12-20T10:19:05;96726.06;;;5.34;80.07
4012;BME280;2020;48.682;9.024;2023-12-20T10:21:31;96722.72;;;4.97;80.48
4012;BME280;2020;48.682;9.024;2023-12-20T10:23:58;96719.38;;;4.73;80.55
4012;BME280;2020;48.682;9.024;2023-12-20T10:26:24;96707.13;;;4.63;82.32
4012;BME280;2020;48.682;9.024;2023-12-20T10:28:55;96708.53;;;4.56;83.86
4012;BME280;2020;48.682;9.024;2023-12-20T10:31:30;96704.91;;;4.59;84.98
4012;BME280;2020;48.682;9.024;2023-12-20T10:34:00;96687.81;;;4.33;83.86
4012;BME280;2020;48.682;9.024;2023-12-20T10:36:27;96693.63;;;4.24;85.96
4012;BME280;2020;48.682;9.024;2023-12-20T10:38:53;96693.09;;;4.07;84.76
4012;BME280;2020;48.682;9.024;2023-12-20T10:41:25;96689.59;;;4.08;84.49
4012;BME280;2020;48.682;9.024;2023-12-20T10:43:51;96685.38;;;4.07;85.61
4012;BME280;2020;48.682;9.024;2023-12-20T10:46:19;96683.00;;;4.04;86.07
4012;BME280;2020;48.682;9.024;2023-12-20T10:48:45;96683.94;;;4.03;85.20
4012;BME280;2020;48.682;9.024;2023-12-20T10:51:14;96694.28;;;4.15;88.01
4012;BME280;2020;48.682;9.024;2023-12-20T10:53:42;96688.69;;;4.21;87.03
4012;BME280;2020;48.682;9.024;2023-12-20T10:56:11;96695.94;;;4.16;85.07
4012;BME280;2020;48.682;9.024;2023-12-20T10:58:39;96697.59;;;4.17;86.61
4012;BME280;2020;48.682;9.024;2023-12-20T11:01:06;96679.94;;;3.99;81.85
4012;BME280;2020;48.682;9.024;2023-12-20T11:03:34;96683.22;;;4.01;84.62
4012;BME280;2020;48.682;9.024;2023-12-20T11:09:01;96678.06;;;4.01;84.73
4012;BME280;2020;48.682;9.024;2023-12-20T11:11:43;96687.88;;;3.96;82.54
4012;BME280;2020;48.682;9.024;2023-12-20T11:14:22;96684.19;;;3.87;82.36
4012;BME280;2020;48.682;9.024;2023-12-20T11:16:48;96682.44;;;3.88;82.79
4012;BME280;2020;48.682;9.024;2023-12-20T11:19:13;96687.38;;;3.91;83.57
4012;BME280;2020;48.682;9.024;2023-12-20T11:21:40;96681.25;;;3.80;81.28
4012;BME280;2020;48.682;9.024;2023-12-20T11:24:05;96681.50;;;3.89;80.70
4012;BME280;2020;48.682;9.024;2023-12-20T11:26:30;96672.03;;;3.89;80.99
4012;BME280;2020;48.682;9.024;2023-12-20T11:29:32;96665.50;;;3.97;80.80
4012;BME280;2020;48.682;9.024;2023-12-20T11:32:00;96669.84;;;3.96;82.04
4012;BME280;2020;48.682;9.024;2023-12-20T11:34:32;96682.66;;;3.85;80.74
4012;BME280;2020;48.682;9.024;2023-12-20T11:36:59;96664.16;;;3.79;80.56
4012;BME280;2020;48.682;9.024;2023-12-20T11:39:26;96674.44;;;3.79;77.75
4012;BME280;2020;48.682;9.024;2023-12-20T11:41:54;96661.28;;;3.71;76.76
4012;BME280;2020;48.682;9.024;2023-12-20T11:44:19;96675.91;;;3.71;76.97
4012;BME280;2020;48.682;9.024;2023-12-20T11:46:45;96669.81;;;3.72;77.66
4012;BME280;2020;48.682;9.024;2023-12-20T11:49:11;96668.06;;;3.72;78.07
4012;BME280;2020;48.682;9.024;2023-12-20T11:51:40;96674.66;;;3.76;78.66
4012;BME280;2020;48.682;9.024;2023-12-20T11:54:06;96683.97;;;3.66;77.24
4012;BME280;2020;48.682;9.024;2023-12-20T11:56:31;96679.66;;;3.54;77.74
4012;BME280;2020;48.682;9.024;2023-12-20T11:58:57;96665.22;;;3.64;80.40
4012;BME280;2020;48.682;9.024;2023-12-20T12:01:22;96661.22;;;3.60;77.78
4012;BME280;2020;48.682;9.024;2023-12-20T12:03:47;96662.16;;;3.59;80.82
4012;BME280;2020;48.682;9.024;2023-12-20T12:06:12;96664.00;;;3.57;81.42
4012;BME280;2020;48.682;9.024;2023-12-20T12:08:38;96664.94;;;3.56;81.46
4012;BME280;2020;48.682;9.024;2023-12-20T12:11:04;96646.91;;;3.56;82.20
4012;BME280;2020;48.682;9.024;2023-12-20T12:13:29;96645.06;;;3.58;80.99
4012;BME280;2020;48.682;9.024;2023-12-20T12:15:55;96650.78;;;3.61;81.52
4012;BME280;2020;48.682;9.024;2023-12-20T12:18:20;96638.06;;;3.60;80.11
4012;BME280;2020;48.682;9.024;2023-12-20T12:20:45;96635.47;;;3.60;81.16
4012;BME280;2020;48.682;9.024;2023-12-20T12:23:10;96640.41;;;3.63;79.87
4012;BME280;2020;48.682;9.024;2023-12-20T12:25:36;96638.16;;;3.58;78.83
4012;BME280;2020;48.682;9.024;2023-12-20T12:28:05;96637.84;;;3.63;80.05
4012;BME280;2020;48.682;9.024;2023-12-20T12:30:30;96640.69;;;3.71;81.69
4012;BME280;2020;48.682;9.024;2023-12-20T12:32:56;96628.75;;;3.70;79.56
4012;BME280;2020;48.682;9.024;2023-12-20T12:35:21;96624.31;;;3.72;81.60
4012;BME280;2020;48.682;9.024;2023-12-20T12:37:47;96610.00;;;3.68;79.82
4012;BME280;2020;48.682;9.024;2023-12-20T12:40:14;96627.09;;;3.69;78.17
4012;BME280;2020;48.682;9.024;2023-12-20T12:42:40;96614.94;;;3.71;80.14
4012;BME280;2020;48.682;9.024;2023-12-20T12:45:06;96625.03;;;3.74;79.22
4012;BME280;2020;48.682;9.024;2023-12-20T12:47:32;96621.75;;;3.72;76.79
4012;BME280;2020;48.682;9.024;2023-12-20T12:49:57;96634.44;;;3.87;79.66
4012;BME280;2020;48.682;9.024;2023-12-20T12:52:23;96621.72;;;4.21;79.60
4012;BME280;2020;48.682;9.024;2023-12-20T12:54:48;96612.34;;;4.20;78.89
4012;BME280;2020;48.682;9.024;2023-12-20T12:57:14;96613.50;;;4.16;77.97
4012;BME280;2020;48.682;9.024;2023-12-20T12:59:41;96620.75;;;4.10;76.35
4012;BME280;2020;48.682;9.024;2023-12-20T13:02:06;96620.88;;;4.09;76.89
4012;BME280;2020;48.682;9.024;2023-12-20T13:04:32;96619.22;;;4.08;77.54
4012;BME280;2020;48.682;9.024;2023-12-20T13:06:57;96624.03;;;4.13;79.59
4012;BME280;2020;48.682;9.024;2023-12-20T13:09:23;96622.59;;;4.08;79.65
4012;BME280;2020;48.682;9.024;2023-12-20T13:11:48;96619.53;;;4.03;78.35
4012;BME280;2020;48.682;9.024;2023-12-20T13:14:13;96617.44;;;4.08;81.43
4012;BME280;2020;48.682;9.024;2023-12-20T13:16:41;96614.78;;;4.10;79.88
4012;BME280;2020;48.682;9.024;2023-12-20T13:19:06;96614.78;;;4.10;79.62
4012;BME280;2020;48.682;9.024;2023-12-20T13:21:31;96617.34;;;4.10;77.78